Time;durP1;ratioP1;P1;durP2;ratioP2;P2;SDS_P1;SDS_P2;PMS_P1;PMS_P2;Temp;Humidity;BMP_temperature;BMP_pressure;BME280_temperature;BME280_humidity;BME280_pressure;Samples;Min_cycle;Max_cycle;Signal;HPM_P1;HPM_P2
2021/05/13 00:00:03;;;;;;;9.75;7.95;;;;;;;12.60;100.00;100099.72;5252282;28;20462;-76
2021/05/13 00:02:33;;;;;;;9.73;8.40;;;;;;;12.62;100.00;100090.81;5249508;28;20046;-76
2021/05/13 00:05:04;;;;;;;9.80;8.10;;;;;;;12.58;100.00;100094.53;5253258;28;20032;-76
2021/05/13 00:07:35;;;;;;;10.68;7.90;;;;;;;12.43;100.00;100091.88;5254218;28;20078;-76
2021/05/13 00:10:08;;;;;;;8.85;6.15;;;;;;;12.46;100.00;100087.28;5249796;28;20059;-76
2021/05/13 00:12:43;;;;;;;10.07;7.32;;;;;;;12.55;100.00;100085.97;5252730;28;20035;-76
2021/05/13 00:15:19;;;;;;;12.30;6.80;;;;;;;12.43;100.00;100089.25;5251435;28;20021;-76
2021/05/13 00:17:51;;;;;;;8.70;6.47;;;;;;;12.48;100.00;100080.19;5249720;28;20033;-76
2021/05/13 00:20:30;;;;;;;8.73;6.60;;;;;;;12.43;100.00;100071.72;5251239;28;20095;-77
2021/05/13 00:23:01;;;;;;;11.93;6.60;;;;;;;12.42;100.00;100063.94;5252087;28;20085;-77
2021/05/13 00:25:31;;;;;;;10.07;6.70;;;;;;;12.51;100.00;100069.56;5251139;28;20132;-77
2021/05/13 00:28:02;;;;;;;8.60;6.25;;;;;;;12.50;100.00;100061.78;5252739;28;20025;-77
2021/05/13 00:30:33;;;;;;;10.13;6.78;;;;;;;12.42;100.00;100063.94;5256358;28;20036;-77
2021/05/13 00:33:03;;;;;;;11.25;6.93;;;;;;;12.46;100.00;100065.50;5250272;28;20020;-77
2021/05/13 00:35:33;;;;;;;9.70;6.55;;;;;;;12.41;100.00;100068.34;5252371;28;20587;-77
2021/05/13 00:38:05;;;;;;;9.55;6.55;;;;;;;12.51;100.00;100059.09;5258233;28;20039;-77
2021/05/13 00:40:35;;;;;;;8.20;6.18;;;;;;;12.46;100.00;100060.25;5254221;28;20107;-77
2021/05/13 00:43:05;;;;;;;9.07;6.45;;;;;;;12.44;100.00;100062.09;5252541;28;20458;-77
2021/05/13 00:45:35;;;;;;;11.60;6.40;;;;;;;12.32;100.00;100066.16;5256480;28;20024;-77
2021/05/13 00:48:12;;;;;;;8.80;6.85;;;;;;;12.15;100.00;100065.34;5257000;28;20047;-77
2021/05/13 00:50:43;;;;;;;12.35;7.18;;;;;;;12.12;100.00;100073.34;5251832;28;20035;-77
2021/05/13 00:53:13;;;;;;;8.88;7.07;;;;;;;11.97;100.00;100064.47;5248557;28;20039;-77
2021/05/13 00:55:43;;;;;;;10.02;7.05;;;;;;;11.95;100.00;100063.69;5257755;28;20497;-77
2021/05/13 00:58:14;;;;;;;9.32;7.18;;;;;;;12.00;100.00;100064.34;5239850;28;20036;-76
2021/05/13 01:03:17;;;;;;;10.70;7.70;;;;;;;12.15;100.00;100057.47;5279726;28;20032;-78
2021/05/13 01:05:47;;;;;;;7.93;6.60;;;;;;;12.07;100.00;100052.63;5261399;28;20024;-77
2021/05/13 01:08:18;;;;;;;11.50;7.35;;;;;;;11.94;100.00;100056.78;5258611;28;20023;-78
2021/05/13 01:10:48;;;;;;;10.65;7.20;;;;;;;11.96;100.00;100046.22;5262937;22;20044;-80
2021/05/13 01:13:22;;;;;;;10.60;7.28;;;;;;;12.15;100.00;100044.38;5228177;28;20068;-80
2021/05/13 01:16:13;;;;;;;9.15;6.30;;;;;;;12.11;100.00;100038.44;5227546;28;20024;-80
2021/05/13 01:18:43;;;;;;;11.50;7.60;;;;;;;12.16;100.00;100038.22;5228961;28;20074;-80
2021/05/13 01:21:14;;;;;;;8.63;6.97;;;;;;;12.26;100.00;100032.44;5244510;28;20033;-80
2021/05/13 01:23:46;;;;;;;8.95;6.85;;;;;;;12.26;100.00;100037.66;5222514;28;20489;-80
2021/05/13 01:26:18;;;;;;;10.02;6.82;;;;;;;12.25;100.00;100043.84;5234165;28;20027;-80
2021/05/13 01:28:48;;;;;;;9.38;6.60;;;;;;;12.13;100.00;100041.81;5250624;28;20040;-80
2021/05/13 01:31:19;;;;;;;8.88;7.50;;;;;;;12.09;100.00;100042.91;5229927;28;20119;-80
2021/05/13 01:33:49;;;;;;;9.60;7.00;;;;;;;12.08;100.00;100033.38;5227278;28;20033;-80
2021/05/13 01:36:20;;;;;;;8.52;7.32;;;;;;;12.12;100.00;100040.13;5239513;28;20021;-80
2021/05/13 01:38:50;;;;;;;10.07;7.50;;;;;;;12.09;100.00;100040.28;5248037;28;20432;-80
2021/05/13 01:41:20;;;;;;;9.52;7.18;;;;;;;11.91;100.00;100040.34;5227645;28;20056;-79
2021/05/13 01:43:50;;;;;;;10.52;7.60;;;;;;;12.05;100.00;100044.00;5249955;28;20114;-80
2021/05/13 01:46:21;;;;;;;8.63;7.50;;;;;;;11.94;100.00;100046.28;5244836;28;20041;-80
2021/05/13 01:48:51;;;;;;;9.57;6.72;;;;;;;11.91;100.00;100046.44;5222267;28;20031;-80
2021/05/13 01:51:22;;;;;;;8.52;6.43;;;;;;;11.86;100.00;100045.84;5239060;28;20041;-80
2021/05/13 01:53:52;;;;;;;9.65;6.13;;;;;;;11.96;100.00;100041.81;5218128;28;20021;-80
2021/05/13 01:56:23;;;;;;;9.43;6.47;;;;;;;12.03;100.00;100029.28;5217156;28;20032;-80
2021/05/13 01:58:53;;;;;;;7.03;5.90;;;;;;;12.04;100.00;100034.44;5218707;28;20028;-80
2021/05/13 02:01:24;;;;;;;10.18;6.53;;;;;;;12.09;100.00;100035.06;5235616;28;20119;-80
2021/05/13 02:03:55;;;;;;;8.65;6.50;;;;;;;12.15;100.00;100029.50;5226995;28;20383;-80
2021/05/13 02:06:25;;;;;;;11.10;7.28;;;;;;;12.08;100.00;100032.50;5246679;28;20024;-80
2021/05/13 02:08:56;;;;;;;11.20;8.05;;;;;;;12.08;100.00;100037.75;5222018;28;20365;-80
2021/05/13 02:11:26;;;;;;;13.38;8.27;;;;;;;12.06;100.00;100043.06;5225152;28;20029;-80
2021/05/13 02:13:57;;;;;;;12.82;9.05;;;;;;;12.21;100.00;100033.59;5234074;28;20493;-80
2021/05/13 02:16:27;;;;;;;11.55;8.43;;;;;;;12.21;100.00;100037.06;5225868;28;20024;-80
2021/05/13 02:18:57;;;;;;;11.77;7.85;;;;;;;12.21;100.00;100029.22;5225731;28;20059;-80
2021/05/13 02:21:28;;;;;;;12.82;9.13;;;;;;;12.16;100.00;100028.56;5212455;28;20107;-80
2021/05/13 02:23:58;;;;;;;12.27;9.05;;;;;;;12.18;100.00;100029.38;5218265;28;20020;-80
2021/05/13 02:26:28;;;;;;;13.75;9.32;;;;;;;12.12;100.00;100026.22;5224615;28;20085;-80
2021/05/13 02:28:59;;;;;;;9.52;7.90;;;;;;;12.25;100.00;100029.88;5213556;28;20017;-80
2021/05/13 02:31:29;;;;;;;10.10;7.80;;;;;;;12.33;100.00;100028.56;5225455;28;20031;-80
2021/05/13 02:33:59;;;;;;;12.80;8.02;;;;;;;12.19;100.00;100025.81;5226399;28;20021;-80
2021/05/13 02:36:30;;;;;;;10.35;7.15;;;;;;;12.12;100.00;100026.22;5223875;28;20095;-81
2021/05/13 02:39:00;;;;;;;9.27;6.32;;;;;;;12.19;100.00;100025.81;5220485;28;20021;-81
2021/05/13 02:41:31;;;;;;;9.38;5.93;;;;;;;12.34;100.00;100011.09;5219895;28;20130;-81
2021/05/13 02:44:01;;;;;;;7.55;4.72;;;;;;;12.41;100.00;100005.44;5238320;28;20058;-81
2021/05/13 02:46:32;;;;;;;8.18;4.68;;;;;;;12.28;100.00;100000.94;5219083;28;20551;-80
2021/05/13 02:49:04;;;;;;;7.35;4.35;;;;;;;12.35;100.00;99992.66;5223372;28;20432;-80
2021/05/13 02:51:34;;;;;;;6.32;3.75;;;;;;;12.26;100.00;99981.81;5221755;28;20024;-81
2021/05/13 02:54:04;;;;;;;7.35;3.53;;;;;;;12.16;100.00;99984.03;5242123;28;20020;-81
2021/05/13 02:56:35;;;;;;;7.43;3.65;;;;;;;12.00;100.00;99977.91;5242182;28;20028;-81
2021/05/13 02:59:05;;;;;;;7.40;3.58;;;;;;;12.06;100.00;99988.06;5218859;28;20050;-81
2021/05/13 03:01:36;;;;;;;6.60;3.63;;;;;;;11.92;100.00;99985.31;5217217;28;20050;-81
2021/05/13 03:04:06;;;;;;;5.13;3.38;;;;;;;11.84;100.00;99989.22;5219210;28;20024;-81
2021/05/13 03:06:40;;;;;;;6.63;3.35;;;;;;;11.74;100.00;99988.84;5216414;28;20045;-81
2021/05/13 03:09:10;;;;;;;5.75;3.40;;;;;;;11.73;100.00;99983.66;5220465;28;20691;-81
2021/05/13 03:11:40;;;;;;;5.20;3.00;;;;;;;11.91;100.00;99977.50;5217459;28;20144;-81
2021/05/13 03:14:11;;;;;;;5.30;2.90;;;;;;;11.96;100.00;99981.59;5232245;28;20020;-81
2021/05/13 03:16:41;;;;;;;5.10;2.63;;;;;;;11.93;100.00;99976.50;5237490;28;20630;-81
2021/05/13 03:19:17;;;;;;;5.40;2.80;;;;;;;11.98;100.00;99974.50;5215028;28;20021;-81
2021/05/13 03:21:48;;;;;;;6.45;3.22;;;;;;;12.02;100.00;99968.22;5219775;28;20031;-81
2021/05/13 03:24:53;;;;;;;4.82;2.72;;;;;;;11.89;100.00;99964.50;5219756;28;20025;-81
2021/05/13 03:29:57;;;;;;;5.65;3.42;;;;;;;12.01;100.00;99969.13;5242208;28;20107;-81
2021/05/13 03:32:27;;;;;;;5.40;3.30;;;;;;;12.09;100.00;99972.19;5221469;28;20607;-81
2021/05/13 03:34:58;;;;;;;6.22;3.67;;;;;;;12.04;100.00;99958.50;5241701;28;20370;-81
2021/05/13 03:37:28;;;;;;;5.47;3.33;;;;;;;11.94;100.00;99954.63;5220301;28;20031;-81
2021/05/13 03:39:58;;;;;;;7.10;3.90;;;;;;;12.03;100.00;99958.56;5240716;28;20029;-80
2021/05/13 03:42:29;;;;;;;6.43;3.47;;;;;;;12.04;100.00;99950.63;5225093;28;20036;-80
2021/05/13 03:44:59;;;;;;;7.50;3.63;;;;;;;11.94;100.00;99956.44;5230391;28;20123;-80
2021/05/13 03:47:29;;;;;;;6.32;4.20;;;;;;;12.08;100.00;99953.94;5227894;28;20028;-80
2021/05/13 03:49:59;;;;;;;6.90;3.60;;;;;;;12.00;100.00;99956.97;5214864;28;20074;-81
2021/05/13 03:52:30;;;;;;;7.18;3.20;;;;;;;12.04;100.00;99955.00;5211794;28;20071;-80
2021/05/13 03:55:00;;;;;;;8.18;3.22;;;;;;;11.92;100.00;99948.63;5225556;28;20727;-80
2021/05/13 03:57:31;;;;;;;6.07;3.33;;;;;;;11.87;100.00;99948.03;5225749;28;20028;-80
2021/05/13 04:00:06;;;;;;;6.07;3.58;;;;;;;11.79;100.00;99947.56;5213428;28;20028;-80
2021/05/13 04:02:37;;;;;;;6.35;3.47;;;;;;;11.86;100.00;99946.34;5237221;28;20613;-80
2021/05/13 04:05:08;;;;;;;5.07;3.38;;;;;;;12.02;100.00;99939.41;5226749;28;20064;-80
2021/05/13 04:07:39;;;;;;;6.28;3.65;;;;;;;11.97;100.00;99930.91;5216211;28;20028;-80
2021/05/13 04:10:10;;;;;;;5.90;3.25;;;;;;;12.03;100.00;99930.63;5225898;28;20054;-80
2021/05/13 04:12:41;;;;;;;5.57;3.67;;;;;;;12.07;100.00;99937.38;5233482;28;20082;-80
2021/05/13 04:15:12;;;;;;;5.55;4.10;;;;;;;12.01;100.00;99935.09;5227335;28;20031;-80
2021/05/13 04:17:42;;;;;;;6.97;3.65;;;;;;;11.94;100.00;99931.06;5238354;28;20060;-80
2021/05/13 04:20:13;;;;;;;6.50;3.60;;;;;;;11.92;100.00;99925.06;5224204;28;20029;-80
2021/05/13 04:22:43;;;;;;;6.75;3.80;;;;;;;11.91;100.00;99933.00;5215973;28;20036;-81
2021/05/13 04:25:13;;;;;;;5.10;3.50;;;;;;;12.00;100.00;99922.06;5222146;28;20017;-82
2021/05/13 04:27:44;;;;;;;8.10;3.50;;;;;;;12.08;100.00;99917.25;5214720;28;20070;-82
2021/05/13 04:30:15;;;;;;;7.30;4.50;;;;;;;12.36;100.00;99920.13;5247766;28;20345;-82
2021/05/13 04:32:45;;;;;;;9.23;4.82;;;;;;;12.42;100.00;99920.66;5248802;28;20115;-82
2021/05/13 04:35:17;;;;;;;9.95;5.05;;;;;;;12.50;100.00;99910.59;5224298;28;20040;-82
2021/05/13 04:37:47;;;;;;;9.25;5.72;;;;;;;12.65;100.00;99909.75;5228231;28;20047;-81
2021/05/13 04:40:18;;;;;;;9.55;6.00;;;;;;;12.63;100.00;99911.63;5239337;28;20013;-81
2021/05/13 04:42:48;;;;;;;8.45;5.72;;;;;;;12.51;100.00;99901.84;5232346;28;20033;-81
2021/05/13 04:45:18;;;;;;;9.38;5.60;;;;;;;12.39;100.00;99907.72;5233646;28;20058;-81
2021/05/13 04:48:05;;;;;;;8.35;5.55;;;;;;;12.12;100.00;99901.31;5245141;28;20029;-82
2021/05/13 04:50:35;;;;;;;8.52;5.22;;;;;;;12.12;100.00;99903.94;5249612;28;20389;-81
2021/05/13 04:53:11;;;;;;;9.32;6.07;;;;;;;12.09;100.00;99900.66;5226033;28;20031;-82
2021/05/13 04:55:42;;;;;;;9.95;6.20;;;;;;;12.09;100.00;99896.22;5218885;28;20025;-81
2021/05/13 04:58:12;;;;;;;11.27;7.30;;;;;;;12.26;100.00;99885.72;5233926;28;20056;-81
2021/05/13 05:00:43;;;;;;;10.98;6.35;;;;;;;12.36;100.00;99888.69;5217472;28;20154;-81
2021/05/13 05:03:13;;;;;;;13.15;7.15;;;;;;;12.17;100.00;99895.84;5240002;28;20035;-81
2021/05/13 05:05:44;;;;;;;11.80;6.80;;;;;;;12.62;100.00;99877.66;5226508;28;20028;-81
2021/05/13 05:08:14;;;;;;;8.57;6.53;;;;;;;12.60;100.00;99882.97;5238430;28;20025;-81
2021/05/13 05:10:46;;;;;;;11.50;6.85;;;;;;;12.62;100.00;99878.47;5226880;28;20016;-81
2021/05/13 05:13:16;;;;;;;9.88;6.57;;;;;;;12.67;100.00;99871.19;5221334;28;20025;-81
2021/05/13 05:15:46;;;;;;;10.60;6.30;;;;;;;12.73;100.00;99877.88;5232958;28;20031;-81
2021/05/13 05:18:21;;;;;;;11.68;6.35;;;;;;;12.70;100.00;99873.69;5222423;28;20025;-81
2021/05/13 05:20:52;;;;;;;11.57;6.05;;;;;;;12.68;100.00;99872.91;5242996;28;20116;-81
2021/05/13 05:23:25;;;;;;;10.45;6.05;;;;;;;12.73;100.00;99870.88;5220707;28;20025;-81
2021/05/13 05:25:56;;;;;;;12.85;7.03;;;;;;;12.79;100.00;99867.91;5222571;28;20044;-81
2021/05/13 05:28:27;;;;;;;11.35;6.90;;;;;;;12.75;100.00;99868.16;5235738;28;20155;-81
2021/05/13 05:30:58;;;;;;;12.55;6.03;;;;;;;12.64;100.00;99860.88;5247905;28;20052;-81
2021/05/13 05:33:28;;;;;;;8.90;5.00;;;;;;;12.75;100.00;99863.78;5219698;28;20031;-81
2021/05/13 05:35:58;;;;;;;8.80;5.28;;;;;;;12.60;100.00;99862.00;5218039;28;20052;-81
2021/05/13 05:38:28;;;;;;;11.43;5.20;;;;;;;12.70;100.00;99860.56;5242372;28;20025;-81
2021/05/13 05:40:59;;;;;;;9.40;5.00;;;;;;;12.75;100.00;99861.16;5221630;28;20458;-81
2021/05/13 05:43:29;;;;;;;12.02;4.85;;;;;;;12.60;100.00;99854.13;5243541;28;20024;-81
2021/05/13 05:45:59;;;;;;;9.88;4.75;;;;;;;12.71;100.00;99859.63;5244189;28;20103;-81
2021/05/13 05:48:31;;;;;;;8.73;4.57;;;;;;;12.75;100.00;99863.78;5219258;28;20020;-80
2021/05/13 05:51:01;;;;;;;10.80;4.50;;;;;;;12.84;100.00;99857.16;5225716;28;20012;-80
2021/05/13 05:53:32;;;;;;;9.05;4.10;;;;;;;12.66;100.00;99856.41;5233775;28;20039;-80
2021/05/13 05:56:02;;;;;;;12.18;4.50;;;;;;;12.75;100.00;99860.28;5231490;28;20032;-80
2021/05/13 05:58:33;;;;;;;10.52;4.30;;;;;;;12.64;100.00;99854.81;5227737;28;20028;-79
2021/05/13 06:01:04;;;;;;;10.70;4.68;;;;;;;12.76;100.00;99857.59;5229812;28;20111;-80
2021/05/13 06:03:34;;;;;;;9.85;4.43;;;;;;;12.61;100.00;99850.56;5232177;28;20096;-80
2021/05/13 06:06:04;;;;;;;11.95;4.32;;;;;;;12.80;100.00;99856.47;5230873;28;20021;-80
2021/05/13 06:08:35;;;;;;;9.32;4.20;;;;;;;12.94;100.00;99859.22;5249353;28;20623;-80
2021/05/13 06:11:06;;;;;;;9.27;4.10;;;;;;;12.97;100.00;99856.41;5244767;28;20024;-80
2021/05/13 06:13:36;;;;;;;13.52;3.97;;;;;;;12.74;100.00;99856.84;5234216;28;20059;-80
2021/05/13 06:16:08;;;;;;;11.35;3.90;;;;;;;12.76;100.00;99856.72;5224379;28;20070;-80
2021/05/13 06:18:53;;;;;;;14.45;4.07;;;;;;;12.65;100.00;99857.34;5223567;28;20231;-79
2021/05/13 06:21:25;;;;;;;13.20;4.30;;;;;;;12.75;100.00;99860.28;5222791;28;20537;-80
2021/05/13 06:23:59;;;;;;;11.95;4.35;;;;;;;12.63;100.00;99859.19;5234662;28;20500;-79
2021/05/13 06:26:35;;;;;;;8.73;4.07;;;;;;;12.74;100.00;99869.09;5226800;28;20035;-80
2021/05/13 06:29:07;;;;;;;9.25;4.10;;;;;;;12.58;100.00;99861.25;5226046;28;20119;-80
2021/05/13 06:31:37;;;;;;;10.38;3.97;;;;;;;12.53;100.00;99863.28;5248397;28;20105;-80
2021/05/13 06:34:07;;;;;;;12.48;4.35;;;;;;;12.70;100.00;99860.56;5243407;28;20479;-79
2021/05/13 06:36:39;;;;;;;10.63;4.05;;;;;;;12.63;100.00;99859.19;5224407;28;20038;-79
2021/05/13 06:39:09;;;;;;;9.25;4.38;;;;;;;12.67;100.00;99857.25;5227563;28;20063;-80
2021/05/13 06:41:41;;;;;;;9.43;4.05;;;;;;;12.79;100.00;99854.78;5225543;28;20021;-81
2021/05/13 06:44:12;;;;;;;13.95;4.20;;;;;;;12.71;100.00;99857.00;5243832;28;20087;-81
2021/05/13 06:46:42;;;;;;;9.90;3.97;;;;;;;12.85;100.00;99851.81;5227655;28;20036;-80
2021/05/13 06:49:12;;;;;;;11.97;4.20;;;;;;;12.79;100.00;99853.97;5235120;28;20083;-81
2021/05/13 06:51:43;;;;;;;10.45;3.85;;;;;;;13.02;99.63;99849.13;5222065;28;20283;-81
2021/05/13 06:54:14;;;;;;;12.70;4.00;;;;;;;13.35;99.89;99853.28;5219882;28;20478;-81
2021/05/13 06:56:45;;;;;;;9.80;3.70;;;;;;;13.67;99.37;99839.13;5245848;28;20024;-81
2021/05/13 06:59:15;;;;;;;16.63;4.18;;;;;;;13.72;96.63;99841.47;5217775;28;20031;-82
2021/05/13 07:01:46;;;;;;;11.40;3.58;;;;;;;14.00;93.95;99836.22;5221120;28;20029;-81
2021/05/13 07:04:16;;;;;;;11.00;3.92;;;;;;;14.28;95.03;99838.88;5218414;28;20025;-81
2021/05/13 07:06:46;;;;;;;10.43;3.85;;;;;;;14.32;92.51;99835.13;5221303;28;20145;-82
2021/05/13 07:09:17;;;;;;;8.77;3.60;;;;;;;14.28;92.84;99828.38;5223463;28;20021;-81
2021/05/13 07:11:47;;;;;;;11.65;3.38;;;;;;;14.06;90.55;99835.88;5347896;22;20064;-78
2021/05/13 07:14:17;;;;;;;8.27;3.30;;;;;;;14.05;92.22;99837.63;5233133;28;20025;-78
2021/05/13 07:16:48;;;;;;;8.30;3.20;;;;;;;14.00;93.88;99830.97;5227191;28;20540;-77
2021/05/13 07:19:19;;;;;;;12.05;3.03;;;;;;;13.82;90.93;99835.56;5235046;28;20117;-78
2021/05/13 07:21:54;;;;;;;9.55;2.70;;;;;;;13.76;94.10;99838.53;5231441;28;20038;-78
2021/05/13 07:24:31;;;;;;;;;;;;;;;13.73;94.73;99841.38;5215528;28;20032;-78
2021/05/13 07:27:01;;;;;;;11.88;3.15;;;;;;;13.98;91.51;99848.59;5246459;28;19956;-78
2021/05/13 07:29:32;;;;;;;8.48;3.08;;;;;;;14.22;91.59;99834.00;5215706;28;20067;-76
2021/05/13 07:32:03;;;;;;;11.77;2.97;;;;;;;14.22;89.58;99839.28;5237163;28;20025;-77
2021/05/13 07:34:34;;;;;;;8.05;2.80;;;;;;;14.31;88.68;99841.31;5214032;28;20062;-78
2021/05/13 07:37:06;;;;;;;10.38;3.00;;;;;;;14.25;89.56;99839.06;5222092;28;20029;-79
2021/05/13 07:39:36;;;;;;;9.18;2.60;;;;;;;14.37;88.38;99840.91;5236163;28;20029;-79
2021/05/13 07:42:07;;;;;;;7.78;2.67;;;;;;;14.68;89.35;99843.31;5236999;28;20048;-78
2021/05/13 07:44:38;;;;;;;9.98;2.70;;;;;;;14.43;85.75;99844.00;5235426;28;20444;-78
2021/05/13 07:47:10;;;;;;;10.27;2.53;;;;;;;14.44;86.70;99837.81;5214634;28;20062;-77
2021/05/13 07:49:41;;;;;;;8.35;2.22;;;;;;;14.17;86.93;99838.69;5212305;28;20021;-78
2021/05/13 07:52:12;;;;;;;8.68;2.35;;;;;;;14.57;87.29;99837.91;5218753;28;20058;-78
2021/05/13 07:54:45;;;;;;;8.40;2.00;;;;;;;14.51;85.46;99840.91;5234339;28;20045;-78
2021/05/13 07:57:15;;;;;;;7.38;1.92;;;;;;;14.53;86.09;99839.03;5219795;28;20025;-78
2021/05/13 07:59:46;;;;;;;10.23;2.10;;;;;;;14.59;83.96;99843.91;5232063;28;20027;-78
2021/05/13 08:02:17;;;;;;;6.97;2.25;;;;;;;14.74;84.13;99840.31;5220252;28;20017;-78
2021/05/13 08:04:48;;;;;;;5.07;1.90;;;;;;;14.63;83.70;99843.59;5229833;28;20656;-77
2021/05/13 08:07:21;;;;;;;9.35;1.90;;;;;;;14.74;84.02;99835.88;5225139;28;20121;-78
2021/05/13 08:09:52;;;;;;;7.57;2.05;;;;;;;14.91;84.46;99836.50;5237286;28;20048;-78
2021/05/13 08:12:23;;;;;;;6.22;2.05;;;;;;;15.03;83.67;99835.66;5220724;28;20029;-77
2021/05/13 08:14:54;;;;;;;6.82;2.08;;;;;;;15.01;82.82;99837.56;5219726;28;20029;-78
2021/05/13 08:17:24;;;;;;;5.90;1.88;;;;;;;14.96;83.54;99833.53;5232095;28;20052;-77
2021/05/13 08:19:54;;;;;;;5.20;1.60;;;;;;;14.85;82.11;99838.66;5233461;28;20020;-77
2021/05/13 08:22:25;;;;;;;6.55;1.77;;;;;;;15.12;82.17;99829.81;5231408;28;20383;-78
2021/05/13 08:24:55;;;;;;;9.65;1.73;;;;;;;15.13;81.61;99842.03;5234636;28;20625;-78
2021/05/13 08:27:26;;;;;;;4.70;1.60;;;;;;;15.18;80.78;99842.56;5231122;28;20074;-77
2021/05/13 08:29:57;;;;;;;7.30;1.70;;;;;;;15.55;79.79;99838.38;5231538;28;20044;-78
2021/05/13 08:32:27;;;;;;;6.00;1.48;;;;;;;15.61;78.74;99824.78;5233709;28;20067;-78
2021/05/13 08:34:58;;;;;;;7.47;1.63;;;;;;;15.93;79.25;99840.09;5234671;28;20040;-78
2021/05/13 08:37:28;;;;;;;6.72;1.90;;;;;;;15.92;78.88;99841.03;5234261;28;20032;-78
2021/05/13 08:39:59;;;;;;;4.75;1.73;;;;;;;15.82;77.91;99837.34;5213736;28;20631;-78
2021/05/13 08:42:29;;;;;;;6.20;1.50;;;;;;;16.14;76.53;99838.59;5234384;28;20047;-78
2021/05/13 08:45:00;;;;;;;7.65;1.90;;;;;;;16.35;74.66;99831.81;5231272;28;20479;-78
2021/05/13 08:47:31;;;;;;;6.43;1.40;;;;;;;16.55;74.84;99838.34;5238779;28;20070;-78
2021/05/13 08:50:02;;;;;;;7.40;1.60;;;;;;;16.54;74.42;99836.66;5234454;28;20116;-77
2021/05/13 08:52:33;;;;;;;9.10;1.40;;;;;;;16.51;74.87;99835.06;5230230;28;20112;-78
2021/05/13 08:55:05;;;;;;;7.25;1.70;;;;;;;16.49;75.52;99831.69;5231651;28;20121;-78
2021/05/13 08:57:36;;;;;;;5.75;1.40;;;;;;;16.61;74.84;99833.47;5230888;28;20111;-78
2021/05/13 09:00:07;;;;;;;4.82;1.50;;;;;;;16.36;74.55;99830.88;5230863;28;20104;-78
2021/05/13 09:02:47;;;;;;;6.03;1.52;;;;;;;16.04;75.01;99826.16;5231657;28;20028;-78
2021/05/13 09:05:18;;;;;;;4.65;1.33;;;;;;;15.88;74.48;99826.34;5239002;28;20390;-78
2021/05/13 09:07:52;;;;;;;5.57;1.48;;;;;;;15.90;73.48;99824.47;5242101;28;20029;-78
2021/05/13 09:10:23;;;;;;;5.03;1.33;;;;;;;16.02;74.07;99826.25;5234211;28;20036;-78
2021/05/13 09:12:53;;;;;;;6.97;1.50;;;;;;;16.12;73.41;99824.66;5237167;28;20037;-78
2021/05/13 09:15:27;;;;;;;3.45;1.25;;;;;;;16.13;72.62;99821.09;5234123;28;20049;-78
2021/05/13 09:17:57;;;;;;;3.90;1.10;;;;;;;16.63;74.15;99820.16;5234459;28;20037;-78
2021/05/13 09:20:38;;;;;;;4.60;1.43;;;;;;;16.77;71.93;99820.84;5237570;28;20236;-78
2021/05/13 09:23:15;;;;;;;4.85;1.27;;;;;;;16.52;70.52;99823.56;5240354;28;20279;-78
2021/05/13 09:26:19;;;;;;;5.13;1.40;;;;;;;16.81;70.77;99822.31;5228556;28;20470;-78
2021/05/13 09:29:08;;;;;;;3.83;1.20;;;;;;;16.99;70.60;99815.69;5241693;28;20033;-78
2021/05/13 09:31:42;;;;;;;4.72;1.20;;;;;;;17.01;70.03;99811.13;5233436;28;20033;-78
2021/05/13 09:34:12;;;;;;;5.20;1.48;;;;;;;16.89;69.46;99810.25;5235363;28;20032;-77
2021/05/13 09:36:42;;;;;;;4.68;1.25;;;;;;;16.94;69.65;99813.38;5240190;28;20024;-78
2021/05/13 09:39:23;;;;;;;3.83;1.10;;;;;;;16.81;70.53;99806.47;5235417;28;20028;-78
2021/05/13 09:41:59;;;;;;;8.82;2.30;;;;;;;16.78;69.04;99809.34;5221387;28;20039;-78
2021/05/13 09:44:32;;;;;;;6.30;1.70;;;;;;;16.54;70.20;99811.09;5233988;28;20033;-78
2021/05/13 09:47:20;;;;;;;4.80;1.30;;;;;;;17.00;69.23;99798.88;5235704;28;20028;-78
2021/05/13 09:49:56;;;;;;;4.50;1.17;;;;;;;17.03;71.97;99802.16;5238227;28;20534;-79
2021/05/13 09:52:43;;;;;;;6.07;1.25;;;;;;;17.23;68.60;99800.66;5235028;28;20027;-77
2021/05/13 09:55:31;;;;;;;5.65;1.15;;;;;;;17.06;68.58;99801.91;5236711;28;20020;-77
2021/05/13 09:58:10;;;;;;;4.22;1.17;;;;;;;16.85;69.30;99800.00;5233604;28;20462;-80
2021/05/13 10:00:47;;;;;;;4.97;1.30;;;;;;;16.87;69.70;99798.09;5237579;28;20078;-79
2021/05/13 10:03:20;;;;;;;3.75;1.02;;;;;;;17.19;68.41;99793.91;5237074;28;20032;-77
2021/05/13 10:05:53;;;;;;;2.72;0.90;;;;;;;16.81;67.17;99803.84;5237662;28;20035;-76
2021/05/13 10:08:23;;;;;;;4.20;1.00;;;;;;;16.77;69.26;99799.75;5234243;28;20079;-80
2021/05/13 10:10:55;;;;;;;5.40;1.30;;;;;;;16.66;68.35;99804.94;5238369;28;20025;-79
2021/05/13 10:13:29;;;;;;;4.85;1.38;;;;;;;16.94;70.12;99800.19;5239933;28;20331;-80
2021/05/13 10:16:01;;;;;;;4.13;0.98;;;;;;;16.66;67.02;99797.03;5235679;28;20116;-79
2021/05/13 10:18:40;;;;;;;5.97;1.40;;;;;;;16.87;68.02;99798.09;5234972;28;20145;-79
2021/05/13 10:21:31;;;;;;;3.58;1.08;;;;;;;16.67;66.96;99798.72;5235136;28;20049;-79
2021/05/13 10:24:02;;;;;;;3.55;0.90;;;;;;;16.99;67.55;99805.13;5221592;28;20031;-80
2021/05/13 10:26:32;;;;;;;5.45;0.90;;;;;;;16.80;68.00;99802.97;5239839;28;20162;-79
2021/05/13 10:29:29;;;;;;;4.07;1.00;;;;;;;17.21;67.68;99792.00;5218783;28;20107;-79
2021/05/13 10:31:59;;;;;;;;;;;;;;;17.41;67.28;99796.66;5227839;28;20226;-80
2021/05/13 10:34:43;;;;;;;4.30;1.10;;;;;;;17.53;66.87;99790.44;5216550;28;19939;-77
2021/05/13 10:37:17;;;;;;;4.75;1.10;;;;;;;17.54;65.95;99792.13;5232867;28;20081;-79
2021/05/13 10:43:06;;;;;;;3.47;0.90;;;;;;;17.27;65.19;99786.25;5235340;28;20071;-79
2021/05/13 10:45:44;;;;;;;3.30;1.00;;;;;;;17.61;66.19;99785.41;5236471;28;20255;-78
2021/05/13 10:48:25;;;;;;;5.53;1.00;;;;;;;17.46;63.94;99776.84;5230766;28;20028;-79
2021/05/13 10:51:00;;;;;;;4.72;1.17;;;;;;;17.53;64.06;99777.22;5236182;28;20089;-79
2021/05/13 10:53:34;;;;;;;3.72;1.00;;;;;;;18.04;67.05;99767.91;5231110;28;20028;-79
2021/05/13 10:56:13;;;;;;;4.47;1.00;;;;;;;18.20;64.36;99763.91;5236869;28;20055;-77
2021/05/13 10:58:54;;;;;;;3.67;1.10;;;;;;;17.88;64.01;99762.13;5216715;28;20037;-78
2021/05/13 11:01:48;;;;;;;3.15;0.90;;;;;;;17.89;64.17;99761.16;5214607;28;20060;-77
2021/05/13 11:04:21;;;;;;;3.78;1.10;;;;;;;17.65;64.46;99769.19;5231892;28;20063;-78
2021/05/13 11:06:53;;;;;;;3.80;1.17;;;;;;;17.81;63.93;99756.47;5220057;28;20115;-77
2021/05/13 11:12:16;;;;;;;4.55;0.93;;;;;;;18.02;64.43;99759.25;5230504;28;20032;-77
2021/05/13 11:20:21;;;;;;;5.85;1.13;;;;;;;17.92;64.06;99755.63;5235442;28;20135;-78
2021/05/13 11:22:54;;;;;;;4.30;1.10;;;;;;;18.03;61.86;99758.28;5234404;28;20490;-77
2021/05/13 11:25:25;;;;;;;2.90;1.00;;;;;;;17.83;61.55;99757.19;5231164;28;20039;-78
2021/05/13 11:27:56;;;;;;;4.10;1.10;;;;;;;17.88;63.03;99756.84;5231807;28;20025;-77
2021/05/13 11:30:28;;;;;;;3.47;0.95;;;;;;;17.80;62.24;99757.44;5236915;28;20501;-78
2021/05/13 11:32:59;;;;;;;4.10;0.95;;;;;;;17.97;64.27;99756.13;5229542;28;20033;-78
2021/05/13 11:35:30;;;;;;;6.20;1.10;;;;;;;17.97;63.99;99751.66;5224680;28;20698;-78
2021/05/13 11:38:13;;;;;;;5.57;1.10;;;;;;;18.30;64.17;99746.38;5225868;28;20035;-78
2021/05/13 11:40:44;;;;;;;5.60;1.10;;;;;;;18.38;64.15;99751.06;5228623;28;20029;-78
2021/05/13 11:43:24;;;;;;;4.20;0.98;;;;;;;17.92;62.96;99747.69;5231023;28;20095;-78
2021/05/13 11:45:56;;;;;;;4.20;1.10;;;;;;;18.06;62.23;99745.66;5230413;28;20028;-78
2021/05/13 11:48:28;;;;;;;4.47;1.58;;;;;;;18.30;62.28;99742.88;5229525;28;20047;-78
2021/05/13 11:51:04;;;;;;;5.55;1.10;;;;;;;18.21;62.71;99743.59;5230569;28;20029;-78
2021/05/13 11:53:36;;;;;;;5.50;1.70;;;;;;;18.49;61.65;99738.63;5228609;28;20476;-78
2021/05/13 11:56:07;;;;;;;4.95;1.60;;;;;;;18.70;62.45;99738.72;5231259;28;20501;-79
2021/05/13 11:58:45;;;;;;;5.57;1.60;;;;;;;18.44;62.29;99732.91;5234393;28;20039;-78
2021/05/13 12:01:33;;;;;;;5.85;1.10;;;;;;;18.44;63.14;99740.84;5231490;28;20035;-79
2021/05/13 12:04:18;;;;;;;5.43;1.15;;;;;;;18.41;63.69;99740.22;5228918;28;20037;-78